sensor_id;sensor_type;location;lat;lon;timestamp;pressure;altitude;pressure_sealevel;temperature;humidity
59391;BME280;53405;57.012;40.984;2023-05-10T00:02:20;101053.94;;;9.97;41.33
59391;BME280;53405;57.012;40.984;2023-05-10T00:04:48;101046.47;;;9.92;40.50
59391;BME280;53405;57.012;40.984;2023-05-10T00:07:16;101050.38;;;9.88;40.85
59391;BME280;53405;57.012;40.984;2023-05-10T00:09:44;101046.53;;;9.83;40.63
59391;BME280;53405;57.012;40.984;2023-05-10T00:12:12;101044.19;;;9.80;42.82
59391;BME280;53405;57.012;40.984;2023-05-10T00:14:40;101045.88;;;9.81;41.17
59391;BME280;53405;57.012;40.984;2023-05-10T00:17:08;101033.00;;;9.77;41.27
59391;BME280;53405;57.012;40.984;2023-05-10T00:19:35;101046.25;;;9.86;40.45
59391;BME280;53405;57.012;40.984;2023-05-10T00:22:03;101044.19;;;9.80;40.52
59391;BME280;53405;57.012;40.984;2023-05-10T00:24:30;101045.75;;;9.72;41.33
59391;BME280;53405;57.012;40.984;2023-05-10T00:26:58;101050.47;;;9.69;42.11
59391;BME280;53405;57.012;40.984;2023-05-10T00:29:26;101046.16;;;9.77;40.76
59391;BME280;53405;57.012;40.984;2023-05-10T00:31:55;101051.84;;;9.73;41.52
59391;BME280;53405;57.012;40.984;2023-05-10T00:34:23;101027.19;;;9.74;41.81
59391;BME280;53405;57.012;40.984;2023-05-10T00:36:51;101047.19;;;9.67;42.21
59391;BME280;53405;57.012;40.984;2023-05-10T00:39:19;101050.72;;;9.75;42.98
59391;BME280;53405;57.012;40.984;2023-05-10T00:41:46;101057.06;;;9.83;42.24
59391;BME280;53405;57.012;40.984;2023-05-10T00:44:15;101009.94;;;9.62;40.92
59391;BME280;53405;57.012;40.984;2023-05-10T00:46:46;101036.75;;;9.75;40.63
59391;BME280;53405;57.012;40.984;2023-05-10T00:49:14;101036.53;;;9.58;42.14
59391;BME280;53405;57.012;40.984;2023-05-10T00:51:42;101046.00;;;9.79;42.61
59391;BME280;53405;57.012;40.984;2023-05-10T00:54:11;101049.06;;;9.74;41.96
59391;BME280;53405;57.012;40.984;2023-05-10T00:56:41;101038.28;;;9.68;41.09
59391;BME280;53405;57.012;40.984;2023-05-10T00:59:08;101033.63;;;9.62;41.86
59391;BME280;53405;57.012;40.984;2023-05-10T01:01:37;101046.31;;;9.66;41.24
59391;BME280;53405;57.012;40.984;2023-05-10T01:04:05;101043.56;;;9.68;40.84
59391;BME280;53405;57.012;40.984;2023-05-10T01:06:32;101037.31;;;9.69;41.79
59391;BME280;53405;57.012;40.984;2023-05-10T01:09:00;101036.38;;;9.70;42.06
59391;BME280;53405;57.012;40.984;2023-05-10T01:11:27;101030.03;;;9.63;41.39
59391;BME280;53405;57.012;40.984;2023-05-10T01:13:57;101034.75;;;9.59;43.56
59391;BME280;53405;57.012;40.984;2023-05-10T01:16:26;101040.16;;;9.57;42.95
59391;BME280;53405;57.012;40.984;2023-05-10T01:18:54;101038.09;;;9.51;44.32
59391;BME280;53405;57.012;40.984;2023-05-10T01:21:38;101045.31;;;9.49;43.12
59391;BME280;53405;57.012;40.984;2023-05-10T01:35:37;101041.03;;;9.48;42.18
59391;BME280;53405;57.012;40.984;2023-05-10T01:43:28;101046.00;;;9.51;42.35
59391;BME280;53405;57.012;40.984;2023-05-10T01:46:12;101039.78;;;9.43;42.15
59391;BME280;53405;57.012;40.984;2023-05-10T01:48:44;101033.19;;;9.38;42.64
59391;BME280;53405;57.012;40.984;2023-05-10T01:51:22;101034.03;;;9.29;43.10
59391;BME280;53405;57.012;40.984;2023-05-10T01:53:59;101027.13;;;9.28;42.77
59391;BME280;53405;57.012;40.984;2023-05-10T01:56:30;101037.59;;;9.38;42.95
59391;BME280;53405;57.012;40.984;2023-05-10T01:59:00;101031.81;;;9.34;44.18
59391;BME280;53405;57.012;40.984;2023-05-10T02:01:30;100983.44;;;9.17;42.86
59391;BME280;53405;57.012;40.984;2023-05-10T02:03:58;101003.91;;;9.23;42.57
59391;BME280;53405;57.012;40.984;2023-05-10T02:06:27;101030.69;;;9.37;42.87
59391;BME280;53405;57.012;40.984;2023-05-10T02:08:55;101032.47;;;9.36;42.69
59391;BME280;53405;57.012;40.984;2023-05-10T02:11:24;101026.31;;;9.28;43.01
59391;BME280;53405;57.012;40.984;2023-05-10T02:13:53;101024.50;;;9.28;43.20
59391;BME280;53405;57.012;40.984;2023-05-10T02:16:29;100997.47;;;9.08;43.38
59391;BME280;53405;57.012;40.984;2023-05-10T02:19:01;101025.06;;;9.22;43.76
59391;BME280;53405;57.012;40.984;2023-05-10T02:21:31;101015.69;;;9.19;44.00
59391;BME280;53405;57.012;40.984;2023-05-10T02:24:01;101021.91;;;9.18;43.92
59391;BME280;53405;57.012;40.984;2023-05-10T02:26:31;101021.38;;;9.15;44.16
59391;BME280;53405;57.012;40.984;2023-05-10T02:29:01;101016.13;;;9.15;43.79
59391;BME280;53405;57.012;40.984;2023-05-10T02:31:32;101021.19;;;9.26;44.18
59391;BME280;53405;57.012;40.984;2023-05-10T02:34:02;101018.13;;;9.31;44.93
59391;BME280;53405;57.012;40.984;2023-05-10T02:36:30;101011.78;;;9.33;45.56
59391;BME280;53405;57.012;40.984;2023-05-10T02:39:00;101013.25;;;9.36;45.12
59391;BME280;53405;57.012;40.984;2023-05-10T02:41:30;101017.56;;;9.37;45.01
59391;BME280;53405;57.012;40.984;2023-05-10T02:44:01;101004.94;;;9.40;44.02
59391;BME280;53405;57.012;40.984;2023-05-10T02:46:30;101008.38;;;9.41;44.08
59391;BME280;53405;57.012;40.984;2023-05-10T02:48:58;100999.16;;;9.37;44.80
59391;BME280;53405;57.012;40.984;2023-05-10T02:51:29;101012.72;;;9.32;45.60
59391;BME280;53405;57.012;40.984;2023-05-10T02:54:02;101011.00;;;9.51;44.92
59391;BME280;53405;57.012;40.984;2023-05-10T02:56:35;101003.63;;;9.54;44.85
59391;BME280;53405;57.012;40.984;2023-05-10T02:59:03;100999.91;;;9.47;45.34
59391;BME280;53405;57.012;40.984;2023-05-10T03:01:31;101001.19;;;9.43;46.04
59391;BME280;53405;57.012;40.984;2023-05-10T03:03:59;101003.78;;;9.53;45.21
59391;BME280;53405;57.012;40.984;2023-05-10T03:06:27;101003.19;;;9.59;43.56
59391;BME280;53405;57.012;40.984;2023-05-10T03:08:56;100999.56;;;9.60;43.27
59391;BME280;53405;57.012;40.984;2023-05-10T03:17:41;101004.44;;;9.55;43.17
59391;BME280;53405;57.012;40.984;2023-05-10T03:20:24;101003.41;;;9.48;43.26
59391;BME280;53405;57.012;40.984;2023-05-10T03:23:00;100994.94;;;9.54;43.45
59391;BME280;53405;57.012;40.984;2023-05-10T03:25:31;100998.09;;;9.57;43.17
59391;BME280;53405;57.012;40.984;2023-05-10T03:28:01;100998.66;;;9.51;44.41
59391;BME280;53405;57.012;40.984;2023-05-10T03:30:30;101001.47;;;9.68;43.61
59391;BME280;53405;57.012;40.984;2023-05-10T03:33:04;101000.81;;;9.66;43.26
59391;BME280;53405;57.012;40.984;2023-05-10T03:35:36;101001.81;;;9.55;43.07
59391;BME280;53405;57.012;40.984;2023-05-10T03:38:05;100998.81;;;9.50;43.52
59391;BME280;53405;57.012;40.984;2023-05-10T03:40:33;101003.41;;;9.38;43.36
59391;BME280;53405;57.012;40.984;2023-05-10T03:43:02;101004.66;;;9.44;43.91
59391;BME280;53405;57.012;40.984;2023-05-10T03:45:29;101008.53;;;9.39;43.34
59391;BME280;53405;57.012;40.984;2023-05-10T03:47:59;100995.69;;;9.36;43.87
59391;BME280;53405;57.012;40.984;2023-05-10T03:50:28;101008.88;;;9.54;44.73
59391;BME280;53405;57.012;40.984;2023-05-10T03:52:56;100996.69;;;9.81;43.90
59391;BME280;53405;57.012;40.984;2023-05-10T03:55:24;101004.66;;;9.89;44.11
59391;BME280;53405;57.012;40.984;2023-05-10T03:57:52;101000.34;;;9.98;43.48
59391;BME280;53405;57.012;40.984;2023-05-10T04:00:22;100996.34;;;9.94;43.98
59391;BME280;53405;57.012;40.984;2023-05-10T04:02:53;101005.97;;;10.03;43.17
59391;BME280;53405;57.012;40.984;2023-05-10T04:05:22;100995.06;;;10.16;44.11
59391;BME280;53405;57.012;40.984;2023-05-10T04:07:51;101000.03;;;10.19;43.19
59391;BME280;53405;57.012;40.984;2023-05-10T04:10:20;100992.78;;;10.21;43.42
59391;BME280;53405;57.012;40.984;2023-05-10T04:12:48;100990.63;;;10.17;44.59
59391;BME280;53405;57.012;40.984;2023-05-10T04:15:16;101002.88;;;10.26;44.23
59391;BME280;53405;57.012;40.984;2023-05-10T04:17:44;100991.84;;;10.40;43.34
59391;BME280;53405;57.012;40.984;2023-05-10T04:20:12;100952.84;;;10.26;42.75
59391;BME280;53405;57.012;40.984;2023-05-10T04:22:39;100993.56;;;10.49;43.68
59391;BME280;53405;57.012;40.984;2023-05-10T04:25:08;100988.28;;;10.49;44.37
59391;BME280;53405;57.012;40.984;2023-05-10T04:27:36;100997.59;;;10.62;43.35
59391;BME280;53405;57.012;40.984;2023-05-10T04:30:04;100995.78;;;10.62;43.53
59391;BME280;53405;57.012;40.984;2023-05-10T04:32:33;100966.41;;;10.49;43.18
59391;BME280;53405;57.012;40.984;2023-05-10T04:35:00;100993.31;;;10.61;43.14
59391;BME280;53405;57.012;40.984;2023-05-10T04:37:30;100998.25;;;10.82;42.96
59391;BME280;53405;57.012;40.984;2023-05-10T04:39:58;100982.38;;;10.74;44.99
59391;BME280;53405;57.012;40.984;2023-05-10T04:42:28;100970.00;;;10.66;43.26
59391;BME280;53405;57.012;40.984;2023-05-10T04:44:56;100992.41;;;10.96;42.32
59391;BME280;53405;57.012;40.984;2023-05-10T04:47:24;100980.00;;;10.89;42.30
59391;BME280;53405;57.012;40.984;2023-05-10T04:49:51;100980.97;;;10.88;42.39
59391;BME280;53405;57.012;40.984;2023-05-10T04:52:19;100982.47;;;10.90;42.74
59391;BME280;53405;57.012;40.984;2023-05-10T04:54:47;100984.59;;;10.87;42.82
59391;BME280;53405;57.012;40.984;2023-05-10T04:57:15;100992.09;;;10.99;43.22
59391;BME280;53405;57.012;40.984;2023-05-10T04:59:43;100987.31;;;11.03;42.42
59391;BME280;53405;57.012;40.984;2023-05-10T05:02:11;100990.13;;;11.01;43.59
59391;BME280;53405;57.012;40.984;2023-05-10T05:04:40;100982.63;;;11.15;42.90
59391;BME280;53405;57.012;40.984;2023-05-10T05:07:08;100981.38;;;11.01;42.34
59391;BME280;53405;57.012;40.984;2023-05-10T05:09:36;100984.69;;;11.03;42.41
59391;BME280;53405;57.012;40.984;2023-05-10T05:12:04;100987.13;;;10.96;42.26
59391;BME280;53405;57.012;40.984;2023-05-10T05:14:32;100977.56;;;10.95;42.65
59391;BME280;53405;57.012;40.984;2023-05-10T05:17:00;100991.03;;;11.18;42.26
59391;BME280;53405;57.012;40.984;2023-05-10T05:19:27;100988.53;;;11.09;43.40
59391;BME280;53405;57.012;40.984;2023-05-10T05:21:55;100986.94;;;11.24;43.89
59391;BME280;53405;57.012;40.984;2023-05-10T05:24:23;100979.53;;;11.28;42.35
59391;BME280;53405;57.012;40.984;2023-05-10T05:26:50;100981.72;;;11.32;42.90
59391;BME280;53405;57.012;40.984;2023-05-10T05:29:18;100988.13;;;11.30;42.48
59391;BME280;53405;57.012;40.984;2023-05-10T05:31:45;100983.72;;;11.38;42.73
59391;BME280;53405;57.012;40.984;2023-05-10T05:34:13;100986.25;;;11.56;42.92
59391;BME280;53405;57.012;40.984;2023-05-10T05:36:41;100984.09;;;11.60;42.86
59391;BME280;53405;57.012;40.984;2023-05-10T05:39:08;100975.53;;;11.66;44.45
59391;BME280;53405;57.012;40.984;2023-05-10T05:41:36;100962.88;;;11.70;43.56
59391;BME280;53405;57.012;40.984;2023-05-10T05:44:14;100971.59;;;11.70;43.63
59391;BME280;53405;57.012;40.984;2023-05-10T05:46:46;100952.81;;;11.82;43.28
59391;BME280;53405;57.012;40.984;2023-05-10T05:49:14;100962.03;;;11.69;43.41
59391;BME280;53405;57.012;40.984;2023-05-10T05:51:42;100969.84;;;11.87;43.87
59391;BME280;53405;57.012;40.984;2023-05-10T05:54:12;100969.22;;;11.93;42.70
59391;BME280;53405;57.012;40.984;2023-05-10T05:56:41;100935.16;;;11.82;42.33
59391;BME280;53405;57.012;40.984;2023-05-10T05:59:09;100972.34;;;12.05;42.74
59391;BME280;53405;57.012;40.984;2023-05-10T06:01:37;100962.47;;;12.16;43.45
59391;BME280;53405;57.012;40.984;2023-05-10T06:04:05;100947.44;;;12.16;42.48
59391;BME280;53405;57.012;40.984;2023-05-10T06:06:33;100974.03;;;12.39;41.28
59391;BME280;53405;57.012;40.984;2023-05-10T06:09:01;100948.44;;;11.99;42.69
59391;BME280;53405;57.012;40.984;2023-05-10T06:11:28;100965.75;;;12.26;42.48
59391;BME280;53405;57.012;40.984;2023-05-10T06:13:58;100969.88;;;12.45;41.25
59391;BME280;53405;57.012;40.984;2023-05-10T06:16:26;100950.75;;;12.43;41.25
59391;BME280;53405;57.012;40.984;2023-05-10T06:18:53;100963.44;;;12.56;40.54
59391;BME280;53405;57.012;40.984;2023-05-10T06:21:21;100953.88;;;12.46;41.48
59391;BME280;53405;57.012;40.984;2023-05-10T06:23:49;100961.94;;;12.70;40.42
59391;BME280;53405;57.012;40.984;2023-05-10T06:26:16;100957.13;;;12.73;41.25
59391;BME280;53405;57.012;40.984;2023-05-10T06:28:45;100952.50;;;12.67;42.14
59391;BME280;53405;57.012;40.984;2023-05-10T06:31:13;100941.13;;;12.67;42.55
59391;BME280;53405;57.012;40.984;2023-05-10T06:33:41;100956.63;;;12.78;41.91
59391;BME280;53405;57.012;40.984;2023-05-10T06:36:10;100951.66;;;12.83;41.73
59391;BME280;53405;57.012;40.984;2023-05-10T06:38:39;100950.66;;;12.84;41.40
59391;BME280;53405;57.012;40.984;2023-05-10T06:41:06;100959.53;;;12.99;41.30
59391;BME280;53405;57.012;40.984;2023-05-10T06:43:35;100963.47;;;13.04;40.84
59391;BME280;53405;57.012;40.984;2023-05-10T06:46:04;100959.31;;;13.17;41.36
59391;BME280;53405;57.012;40.984;2023-05-10T06:48:32;100961.66;;;13.12;40.80
59391;BME280;53405;57.012;40.984;2023-05-10T06:51:00;100953.88;;;13.11;41.59
59391;BME280;53405;57.012;40.984;2023-05-10T06:53:28;100957.13;;;13.21;42.31
59391;BME280;53405;57.012;40.984;2023-05-10T06:55:56;100957.47;;;13.26;41.28
59391;BME280;53405;57.012;40.984;2023-05-10T06:58:24;100966.91;;;13.20;41.31
59391;BME280;53405;57.012;40.984;2023-05-10T07:00:52;100966.03;;;13.28;40.98
59391;BME280;53405;57.012;40.984;2023-05-10T07:03:19;100955.94;;;13.32;39.53
59391;BME280;53405;57.012;40.984;2023-05-10T07:05:47;100963.75;;;13.65;38.03
59391;BME280;53405;57.012;40.984;2023-05-10T07:08:15;100963.22;;;13.69;39.26
59391;BME280;53405;57.012;40.984;2023-05-10T07:10:42;100960.84;;;13.83;38.14
59391;BME280;53405;57.012;40.984;2023-05-10T07:13:10;100948.94;;;13.79;38.39
59391;BME280;53405;57.012;40.984;2023-05-10T07:15:38;100946.16;;;13.95;37.77
59391;BME280;53405;57.012;40.984;2023-05-10T07:18:07;100954.81;;;13.89;40.74
59391;BME280;53405;57.012;40.984;2023-05-10T07:20:34;100944.38;;;13.96;37.13
59391;BME280;53405;57.012;40.984;2023-05-10T07:23:02;100957.94;;;13.93;38.01
59391;BME280;53405;57.012;40.984;2023-05-10T07:25:30;100945.63;;;14.00;37.34
59391;BME280;53405;57.012;40.984;2023-05-10T07:27:58;100950.41;;;14.04;37.46
59391;BME280;53405;57.012;40.984;2023-05-10T07:30:25;100941.81;;;14.02;38.19
59391;BME280;53405;57.012;40.984;2023-05-10T07:32:53;100944.22;;;14.12;41.25
59391;BME280;53405;57.012;40.984;2023-05-10T07:35:21;100948.38;;;14.30;38.12
59391;BME280;53405;57.012;40.984;2023-05-10T07:37:48;100942.28;;;14.44;37.55
59391;BME280;53405;57.012;40.984;2023-05-10T07:40:16;100919.53;;;14.35;38.60
59391;BME280;53405;57.012;40.984;2023-05-10T07:42:43;100940.97;;;14.63;37.60
59391;BME280;53405;57.012;40.984;2023-05-10T07:45:11;100926.00;;;14.70;34.80
59391;BME280;53405;57.012;40.984;2023-05-10T07:47:39;100937.16;;;14.80;36.69
59391;BME280;53405;57.012;40.984;2023-05-10T07:50:07;100927.28;;;15.04;36.14
59391;BME280;53405;57.012;40.984;2023-05-10T07:52:36;100928.75;;;14.92;35.45
59391;BME280;53405;57.012;40.984;2023-05-10T07:55:03;100931.47;;;14.98;35.72
59391;BME280;53405;57.012;40.984;2023-05-10T07:57:31;100917.94;;;15.08;34.59
59391;BME280;53405;57.012;40.984;2023-05-10T07:59:59;100914.09;;;15.11;31.14
59391;BME280;53405;57.012;40.984;2023-05-10T08:02:27;100915.78;;;15.33;33.17
59391;BME280;53405;57.012;40.984;2023-05-10T08:04:55;100914.88;;;15.63;32.62
59391;BME280;53405;57.012;40.984;2023-05-10T08:07:24;100916.97;;;15.67;31.75
59391;BME280;53405;57.012;40.984;2023-05-10T08:09:52;100912.59;;;15.60;29.29
59391;BME280;53405;57.012;40.984;2023-05-10T08:12:19;100907.53;;;15.80;29.40
59391;BME280;53405;57.012;40.984;2023-05-10T08:14:47;100904.84;;;16.01;27.21
59391;BME280;53405;57.012;40.984;2023-05-10T08:17:15;100899.19;;;16.11;29.27
59391;BME280;53405;57.012;40.984;2023-05-10T08:19:43;100911.41;;;16.27;29.57
59391;BME280;53405;57.012;40.984;2023-05-10T08:22:11;100902.31;;;16.78;28.69
59391;BME280;53405;57.012;40.984;2023-05-10T08:24:39;100910.88;;;17.08;29.63
59391;BME280;53405;57.012;40.984;2023-05-10T08:27:09;100912.44;;;17.58;26.10
59391;BME280;53405;57.012;40.984;2023-05-10T08:29:37;100886.78;;;17.23;27.43
59391;BME280;53405;57.012;40.984;2023-05-10T08:32:12;100901.31;;;17.27;29.37
59391;BME280;53405;57.012;40.984;2023-05-10T08:34:40;100869.63;;;17.46;26.66
59391;BME280;53405;57.012;40.984;2023-05-10T08:37:08;100893.28;;;18.02;25.39
59391;BME280;53405;57.012;40.984;2023-05-10T08:39:35;100896.13;;;18.21;25.20
59391;BME280;53405;57.012;40.984;2023-05-10T08:42:04;100882.19;;;17.92;28.51
59391;BME280;53405;57.012;40.984;2023-05-10T08:44:36;100860.47;;;18.02;27.82
59391;BME280;53405;57.012;40.984;2023-05-10T08:47:05;100883.53;;;18.68;27.44
59391;BME280;53405;57.012;40.984;2023-05-10T08:49:37;100880.56;;;19.03;24.88
59391;BME280;53405;57.012;40.984;2023-05-10T08:52:05;100877.59;;;18.66;25.34
59391;BME280;53405;57.012;40.984;2023-05-10T08:54:34;100871.94;;;18.16;27.52
59391;BME280;53405;57.012;40.984;2023-05-10T08:57:02;100857.38;;;18.05;26.11
59391;BME280;53405;57.012;40.984;2023-05-10T08:59:30;100862.13;;;18.03;25.69
59391;BME280;53405;57.012;40.984;2023-05-10T09:01:59;100865.75;;;18.29;24.80
59391;BME280;53405;57.012;40.984;2023-05-10T09:04:27;100863.78;;;18.83;25.39
59391;BME280;53405;57.012;40.984;2023-05-10T09:06:55;100855.41;;;19.56;25.98
59391;BME280;53405;57.012;40.984;2023-05-10T09:09:25;100846.91;;;20.16;23.17
59391;BME280;53405;57.012;40.984;2023-05-10T09:11:53;100852.56;;;19.83;24.00
59391;BME280;53405;57.012;40.984;2023-05-10T09:14:23;100833.78;;;19.32;24.46
59391;BME280;53405;57.012;40.984;2023-05-10T09:16:51;100848.28;;;18.59;26.03
59391;BME280;53405;57.012;40.984;2023-05-10T09:19:19;100849.19;;;18.20;25.25
59391;BME280;53405;57.012;40.984;2023-05-10T09:21:46;100810.66;;;17.69;26.64
59391;BME280;53405;57.012;40.984;2023-05-10T09:24:14;100838.31;;;17.61;27.58
59391;BME280;53405;57.012;40.984;2023-05-10T09:26:46;100827.88;;;17.60;27.56
59391;BME280;53405;57.012;40.984;2023-05-10T09:29:17;100827.66;;;17.68;27.17
59391;BME280;53405;57.012;40.984;2023-05-10T09:31:48;100828.69;;;17.54;26.69
59391;BME280;53405;57.012;40.984;2023-05-10T09:34:28;100827.63;;;17.48;27.91
59391;BME280;53405;57.012;40.984;2023-05-10T09:36:59;100823.72;;;17.24;29.19
59391;BME280;53405;57.012;40.984;2023-05-10T09:39:35;100817.00;;;17.48;28.72
59391;BME280;53405;57.012;40.984;2023-05-10T09:42:05;100818.03;;;17.54;27.24
59391;BME280;53405;57.012;40.984;2023-05-10T09:44:34;100816.19;;;17.54;28.88
59391;BME280;53405;57.012;40.984;2023-05-10T09:47:02;100802.63;;;17.22;29.84
59391;BME280;53405;57.012;40.984;2023-05-10T09:49:30;100829.88;;;17.38;30.04
59391;BME280;53405;57.012;40.984;2023-05-10T09:52:05;100825.13;;;17.26;29.18
59391;BME280;53405;57.012;40.984;2023-05-10T09:54:34;100800.91;;;17.01;29.29
59391;BME280;53405;57.012;40.984;2023-05-10T09:57:02;100825.16;;;17.33;28.32
59391;BME280;53405;57.012;40.984;2023-05-10T09:59:33;100802.16;;;16.98;29.83
59391;BME280;53405;57.012;40.984;2023-05-10T10:02:02;100819.06;;;16.84;30.37
59391;BME280;53405;57.012;40.984;2023-05-10T10:04:30;100777.00;;;16.46;29.88
59391;BME280;53405;57.012;40.984;2023-05-10T10:07:04;100802.28;;;16.84;30.55
59391;BME280;53405;57.012;40.984;2023-05-10T10:09:33;100804.09;;;17.31;28.72
59391;BME280;53405;57.012;40.984;2023-05-10T10:12:02;100811.66;;;17.75;27.70
59391;BME280;53405;57.012;40.984;2023-05-10T10:14:30;100800.59;;;17.51;27.15
59391;BME280;53405;57.012;40.984;2023-05-10T10:17:00;100796.88;;;17.12;27.31
59391;BME280;53405;57.012;40.984;2023-05-10T10:19:33;100786.81;;;17.01;28.46
59391;BME280;53405;57.012;40.984;2023-05-10T10:22:00;100792.38;;;17.26;30.84
59391;BME280;53405;57.012;40.984;2023-05-10T10:24:28;100792.63;;;17.44;29.45
59391;BME280;53405;57.012;40.984;2023-05-10T10:29:47;100792.19;;;17.27;29.04
59391;BME280;53405;57.012;40.984;2023-05-10T10:32:33;100797.31;;;17.22;27.88
59391;BME280;53405;57.012;40.984;2023-05-10T10:35:06;100728.78;;;16.69;28.01
59391;BME280;53405;57.012;40.984;2023-05-10T10:37:46;100785.00;;;17.08;29.26
59391;BME280;53405;57.012;40.984;2023-05-10T10:40:31;100708.97;;;16.78;29.15
59391;BME280;53405;57.012;40.984;2023-05-10T10:43:26;100785.66;;;17.70;28.80
59391;BME280;53405;57.012;40.984;2023-05-10T10:46:16;100783.63;;;17.79;28.83
59391;BME280;53405;57.012;40.984;2023-05-10T10:48:49;100780.53;;;18.09;29.03
59391;BME280;53405;57.012;40.984;2023-05-10T10:51:18;100786.78;;;18.41;27.57
59391;BME280;53405;57.012;40.984;2023-05-10T10:53:47;100785.28;;;18.58;27.03
59391;BME280;53405;57.012;40.984;2023-05-10T10:56:16;100777.13;;;18.92;26.66
59391;BME280;53405;57.012;40.984;2023-05-10T10:58:51;100773.06;;;18.89;26.19
59391;BME280;53405;57.012;40.984;2023-05-10T11:01:20;100771.47;;;18.68;27.49
59391;BME280;53405;57.012;40.984;2023-05-10T11:06:33;100783.06;;;18.49;28.59
59391;BME280;53405;57.012;40.984;2023-05-10T11:09:08;100776.97;;;18.28;28.26
59391;BME280;53405;57.012;40.984;2023-05-10T11:11:52;100770.69;;;18.09;28.33
59391;BME280;53405;57.012;40.984;2023-05-10T11:14:22;100757.81;;;17.93;27.60
59391;BME280;53405;57.012;40.984;2023-05-10T11:16:50;100763.75;;;17.88;28.26
59391;BME280;53405;57.012;40.984;2023-05-10T11:19:19;100764.75;;;17.94;27.52
59391;BME280;53405;57.012;40.984;2023-05-10T11:24:33;100748.59;;;17.88;28.46
59391;BME280;53405;57.012;40.984;2023-05-10T11:32:24;100752.47;;;17.93;28.39
59391;BME280;53405;57.012;40.984;2023-05-10T11:34:52;100721.13;;;17.95;28.03
59391;BME280;53405;57.012;40.984;2023-05-10T11:37:19;100742.38;;;18.15;27.57
59391;BME280;53405;57.012;40.984;2023-05-10T11:39:47;100759.75;;;18.31;27.58
59391;BME280;53405;57.012;40.984;2023-05-10T11:42:15;100748.66;;;18.40;26.55
59391;BME280;53405;57.012;40.984;2023-05-10T11:44:45;100737.59;;;18.30;27.03
59391;BME280;53405;57.012;40.984;2023-05-10T11:47:14;100745.69;;;18.62;26.62
59391;BME280;53405;57.012;40.984;2023-05-10T11:49:45;100741.41;;;18.54;27.80
59391;BME280;53405;57.012;40.984;2023-05-10T11:52:13;100735.22;;;18.99;26.21
59391;BME280;53405;57.012;40.984;2023-05-10T11:54:55;100709.75;;;18.65;26.57
59391;BME280;53405;57.012;40.984;2023-05-10T11:57:26;100730.13;;;18.52;26.18
59391;BME280;53405;57.012;40.984;2023-05-10T11:59:56;100725.09;;;18.24;27.26
59391;BME280;53405;57.012;40.984;2023-05-10T12:02:24;100699.78;;;18.01;28.22
59391;BME280;53405;57.012;40.984;2023-05-10T12:08:15;100720.94;;;17.63;29.89
59391;BME280;53405;57.012;40.984;2023-05-10T12:10:43;100728.09;;;17.56;29.92
59391;BME280;53405;57.012;40.984;2023-05-10T12:13:14;100718.06;;;17.64;28.99
59391;BME280;53405;57.012;40.984;2023-05-10T12:15:42;100713.38;;;17.60;29.79
59391;BME280;53405;57.012;40.984;2023-05-10T12:18:14;100716.19;;;17.72;29.82
59391;BME280;53405;57.012;40.984;2023-05-10T12:20:42;100716.22;;;17.51;29.47
59391;BME280;53405;57.012;40.984;2023-05-10T12:23:10;100713.38;;;17.60;30.53
59391;BME280;53405;57.012;40.984;2023-05-10T12:25:38;100706.22;;;17.47;30.48
59391;BME280;53405;57.012;40.984;2023-05-10T12:28:08;100692.66;;;17.48;29.44
59391;BME280;53405;57.012;40.984;2023-05-10T12:30:39;100716.63;;;17.62;28.87
59391;BME280;53405;57.012;40.984;2023-05-10T12:33:26;100704.13;;;17.56;28.85
59391;BME280;53405;57.012;40.984;2023-05-10T12:35:55;100708.44;;;17.37;29.58
59391;BME280;53405;57.012;40.984;2023-05-10T12:38:38;100710.91;;;17.58;29.11
59391;BME280;53405;57.012;40.984;2023-05-10T12:41:10;100710.06;;;17.71;29.58
59391;BME280;53405;57.012;40.984;2023-05-10T12:43:39;100707.59;;;17.96;29.38
59391;BME280;53405;57.012;40.984;2023-05-10T12:46:10;100699.00;;;17.94;28.32
59391;BME280;53405;57.012;40.984;2023-05-10T12:48:39;100668.50;;;17.63;30.87
59391;BME280;53405;57.012;40.984;2023-05-10T12:51:08;100696.94;;;17.90;30.39
59391;BME280;53405;57.012;40.984;2023-05-10T12:53:37;100705.66;;;18.17;28.17
59391;BME280;53405;57.012;40.984;2023-05-10T12:56:06;100694.66;;;17.80;29.36
59391;BME280;53405;57.012;40.984;2023-05-10T12:58:34;100699.16;;;17.86;29.19
59391;BME280;53405;57.012;40.984;2023-05-10T13:01:02;100696.09;;;18.02;27.65
59391;BME280;53405;57.012;40.984;2023-05-10T13:03:31;100692.19;;;17.98;27.64
59391;BME280;53405;57.012;40.984;2023-05-10T13:05:59;100697.94;;;17.95;27.58
59391;BME280;53405;57.012;40.984;2023-05-10T13:08:27;100688.06;;;18.09;27.90
59391;BME280;53405;57.012;40.984;2023-05-10T13:10:57;100691.50;;;18.23;28.23
59391;BME280;53405;57.012;40.984;2023-05-10T13:13:25;100683.84;;;18.40;27.32
59391;BME280;53405;57.012;40.984;2023-05-10T13:15:53;100688.97;;;18.41;29.13
59391;BME280;53405;57.012;40.984;2023-05-10T13:18:21;100687.66;;;18.51;29.19
59391;BME280;53405;57.012;40.984;2023-05-10T13:20:48;100687.66;;;18.51;29.36
59391;BME280;53405;57.012;40.984;2023-05-10T13:23:16;100684.50;;;18.67;28.63
59391;BME280;53405;57.012;40.984;2023-05-10T13:25:44;100688.47;;;18.58;27.33
59391;BME280;53405;57.012;40.984;2023-05-10T13:28:12;100687.28;;;18.47;28.94
59391;BME280;53405;57.012;40.984;2023-05-10T13:30:40;100681.00;;;18.73;27.70
59391;BME280;53405;57.012;40.984;2023-05-10T13:33:08;100675.66;;;18.73;26.92
59391;BME280;53405;57.012;40.984;2023-05-10T13:35:35;100684.41;;;18.87;27.35